createdAt,value
2023-04-30T00:00:46.852Z,0.00
2023-04-30T00:01:46.848Z,0.00
2023-04-30T00:02:46.938Z,0.00
2023-04-30T00:03:46.930Z,0.00
2023-04-30T00:04:46.832Z,0.00
2023-04-30T00:05:46.812Z,0.00
2023-04-30T00:06:46.860Z,0.00
2023-04-30T00:07:46.774Z,0.00
2023-04-30T00:08:46.814Z,0.00
2023-04-30T00:09:46.751Z,0.00
2023-04-30T00:10:46.771Z,0.00
2023-04-30T00:11:46.744Z,0.00
2023-04-30T00:12:46.759Z,0.00
2023-04-30T00:13:46.751Z,0.00
2023-04-30T00:14:46.701Z,0.00
2023-04-30T00:15:46.735Z,0.00
2023-04-30T00:16:46.725Z,0.00
2023-04-30T00:17:46.670Z,0.00
2023-04-30T00:18:46.667Z,0.00
2023-04-30T00:19:46.690Z,0.00
2023-04-30T00:20:46.645Z,0.00
2023-04-30T00:21:46.655Z,0.00
2023-04-30T00:22:46.626Z,0.00
2023-04-30T00:23:46.614Z,0.00
2023-04-30T00:24:46.620Z,0.00
2023-04-30T00:25:46.644Z,0.00
2023-04-30T00:26:46.607Z,0.00
2023-04-30T00:27:46.577Z,0.00
2023-04-30T00:28:46.545Z,0.00
2023-04-30T00:29:46.538Z,0.00
2023-04-30T00:30:46.560Z,0.00
2023-04-30T00:31:46.631Z,0.00
2023-04-30T00:32:46.585Z,0.00
2023-04-30T00:33:46.555Z,0.00
2023-04-30T00:34:46.499Z,0.00
2023-04-30T00:35:46.497Z,0.00
2023-04-30T00:36:46.518Z,0.00
2023-04-30T00:37:46.478Z,0.00
2023-04-30T00:38:46.458Z,0.00
2023-04-30T00:39:46.476Z,0.00
2023-04-30T00:40:46.436Z,0.00
2023-04-30T00:41:47.170Z,0.00
2023-04-30T00:42:47.467Z,0.00
2023-04-30T00:43:46.414Z,0.00
2023-04-30T00:44:46.392Z,0.00
2023-04-30T00:45:46.445Z,0.00
2023-04-30T00:46:46.401Z,0.00
2023-04-30T00:47:46.634Z,0.00
2023-04-30T00:48:46.352Z,0.00
2023-04-30T00:49:46.343Z,0.00
2023-04-30T00:50:46.335Z,0.00
2023-04-30T00:51:46.370Z,0.00
2023-04-30T00:52:46.302Z,0.00
2023-04-30T00:53:46.357Z,0.00
2023-04-30T00:54:46.301Z,0.00
2023-04-30T00:55:46.287Z,0.00
2023-04-30T00:56:46.310Z,0.00
2023-04-30T00:57:46.291Z,0.00
2023-04-30T00:58:46.293Z,0.00
2023-04-30T00:59:46.241Z,0.00
2023-04-30T01:00:46.222Z,0.00
2023-04-30T01:01:46.410Z,0.00
2023-04-30T01:02:46.314Z,0.00
2023-04-30T01:03:46.289Z,0.00
2023-04-30T01:04:46.195Z,0.00
2023-04-30T01:05:46.228Z,0.00
2023-04-30T01:06:46.237Z,0.00
2023-04-30T01:07:46.201Z,0.00
2023-04-30T01:08:46.188Z,0.00
2023-04-30T01:09:46.171Z,0.00
2023-04-30T01:10:46.113Z,0.00
2023-04-30T01:11:46.133Z,0.00
2023-04-30T01:12:46.130Z,0.00
2023-04-30T01:13:46.102Z,0.00
2023-04-30T01:14:46.071Z,0.00
2023-04-30T01:15:46.105Z,0.00
2023-04-30T01:16:46.049Z,0.00
2023-04-30T01:17:46.141Z,0.00
2023-04-30T01:18:46.122Z,0.00
2023-04-30T01:19:46.036Z,0.00
2023-04-30T01:20:46.033Z,0.00
2023-04-30T01:21:46.047Z,0.00
2023-04-30T01:22:46.015Z,0.00
2023-04-30T01:23:46.004Z,0.00
2023-04-30T01:24:45.968Z,0.00
2023-04-30T01:25:46.004Z,0.00
2023-04-30T01:26:45.953Z,0.00
2023-04-30T01:27:45.976Z,0.00
2023-04-30T01:28:46.703Z,0.00
2023-04-30T01:29:45.946Z,0.00
2023-04-30T01:30:45.919Z,0.00
2023-04-30T01:31:45.950Z,0.00
2023-04-30T01:32:45.949Z,0.00
2023-04-30T01:33:45.893Z,0.00
2023-04-30T01:34:45.875Z,0.00
2023-04-30T01:35:45.881Z,0.00
2023-04-30T01:36:46.914Z,0.00
2023-04-30T01:37:45.882Z,0.00
2023-04-30T01:38:45.828Z,0.00
2023-04-30T01:39:45.842Z,0.00
2023-04-30T01:40:45.807Z,0.00
2023-04-30T01:41:45.801Z,0.00
2023-04-30T01:42:45.805Z,0.00
2023-04-30T01:43:45.814Z,0.00
2023-04-30T01:44:45.768Z,0.00
2023-04-30T01:45:45.795Z,0.00
2023-04-30T01:46:45.887Z,0.00
2023-04-30T01:47:45.808Z,0.00
2023-04-30T01:48:45.760Z,0.00
2023-04-30T01:49:45.746Z,0.00
2023-04-30T01:50:45.738Z,0.00
2023-04-30T01:51:45.700Z,0.00
2023-04-30T01:52:45.683Z,0.00
2023-04-30T01:53:45.711Z,0.00
2023-04-30T01:54:45.688Z,0.00
2023-04-30T01:55:45.719Z,0.00
2023-04-30T01:56:45.670Z,0.00
2023-04-30T01:57:45.652Z,0.00
2023-04-30T01:58:45.661Z,0.00
2023-04-30T01:59:46.103Z,0.00
2023-04-30T02:00:45.604Z,0.00
2023-04-30T02:01:45.662Z,0.00
2023-04-30T02:02:45.751Z,0.00
2023-04-30T02:03:45.617Z,0.00
2023-04-30T02:04:45.567Z,0.00
2023-04-30T02:05:45.570Z,0.00
2023-04-30T02:06:48.966Z,0.00
2023-04-30T02:07:45.553Z,0.00
2023-04-30T02:08:45.538Z,0.00
2023-04-30T02:09:45.545Z,0.00
2023-04-30T02:10:46.227Z,0.00
2023-04-30T02:11:46.479Z,0.00
2023-04-30T02:12:45.481Z,0.00
2023-04-30T02:13:45.473Z,0.00
2023-04-30T02:14:45.475Z,0.00
2023-04-30T02:15:45.483Z,0.00
2023-04-30T02:16:45.460Z,0.00
2023-04-30T02:17:45.486Z,0.00
2023-04-30T02:18:45.428Z,0.00
2023-04-30T02:19:45.427Z,0.00
2023-04-30T02:20:45.392Z,0.00
2023-04-30T02:21:45.421Z,0.00
2023-04-30T02:22:45.386Z,0.00
2023-04-30T02:23:45.437Z,0.00
2023-04-30T02:24:45.356Z,0.00
2023-04-30T02:25:45.352Z,0.00
2023-04-30T02:26:45.376Z,0.00
2023-04-30T02:27:45.340Z,0.00
2023-04-30T02:28:45.318Z,0.00
2023-04-30T02:29:45.309Z,0.00
2023-04-30T02:30:46.576Z,0.00
2023-04-30T02:31:45.363Z,0.00
2023-04-30T02:32:45.284Z,0.00
2023-04-30T02:33:46.485Z,0.00
2023-04-30T02:34:45.254Z,0.00
2023-04-30T02:35:45.264Z,0.00
2023-04-30T02:36:45.252Z,0.00
2023-04-30T02:37:45.257Z,0.00
2023-04-30T02:38:45.235Z,0.00
2023-04-30T02:39:45.992Z,0.00
2023-04-30T02:40:45.189Z,0.00
2023-04-30T02:41:45.202Z,0.00
2023-04-30T02:42:45.187Z,0.00
2023-04-30T02:43:46.473Z,0.00
2023-04-30T02:44:45.145Z,0.00
2023-04-30T02:45:45.198Z,0.00
2023-04-30T02:46:45.128Z,0.00
2023-04-30T02:47:45.141Z,0.00
2023-04-30T02:48:45.103Z,0.00
2023-04-30T02:49:45.125Z,0.00
2023-04-30T02:50:45.123Z,0.00
2023-04-30T02:51:45.113Z,0.00
2023-04-30T02:52:45.060Z,0.00
2023-04-30T02:53:45.266Z,0.00
2023-04-30T02:54:45.036Z,0.00
2023-04-30T02:55:45.082Z,0.00
2023-04-30T02:56:45.028Z,0.00
2023-04-30T02:57:45.020Z,0.00
2023-04-30T02:58:45.039Z,0.00
2023-04-30T02:59:44.961Z,1.00
2023-04-30T03:00:44.973Z,0.00
2023-04-30T03:01:45.653Z,0.00
2023-04-30T03:02:45.036Z,1.00
2023-04-30T03:03:44.973Z,1.00
2023-04-30T03:04:45.289Z,1.00
2023-04-30T03:05:44.944Z,0.00
2023-04-30T03:06:46.580Z,0.00
2023-04-30T03:07:44.886Z,2.00
2023-04-30T03:08:44.887Z,1.00
2023-04-30T03:09:44.859Z,1.00
2023-04-30T03:10:44.865Z,2.00
2023-04-30T03:11:44.823Z,1.00
2023-04-30T03:12:47.392Z,1.00
2023-04-30T03:13:44.831Z,4.00
2023-04-30T03:14:44.775Z,3.00
2023-04-30T03:15:44.781Z,3.00
2023-04-30T03:16:44.828Z,2.00
2023-04-30T03:17:46.121Z,2.00
2023-04-30T03:18:44.766Z,5.00
2023-04-30T03:19:44.768Z,6.00
2023-04-30T03:20:44.734Z,4.00
2023-04-30T03:21:44.731Z,7.00
2023-04-30T03:22:44.714Z,10.00
2023-04-30T03:23:44.734Z,12.00
2023-04-30T03:24:44.683Z,10.00
2023-04-30T03:25:44.682Z,11.00
2023-04-30T03:26:44.664Z,18.00
2023-04-30T03:27:44.679Z,20.00
2023-04-30T03:28:45.940Z,20.00
2023-04-30T03:29:44.651Z,26.00
2023-04-30T03:30:44.653Z,32.00
2023-04-30T03:31:46.140Z,34.00
2023-04-30T03:32:44.631Z,37.00
2023-04-30T03:33:44.637Z,43.00
2023-04-30T03:34:44.593Z,50.00
2023-04-30T03:35:44.605Z,57.00
2023-04-30T03:37:03.672Z,62.00
2023-04-30T03:37:46.139Z,70.00
2023-04-30T03:38:44.557Z,76.00
2023-04-30T03:39:44.554Z,85.00
2023-04-30T03:40:44.566Z,93.00
2023-04-30T03:41:46.167Z,103.00
2023-04-30T03:42:51.363Z,110.00
2023-04-30T03:43:46.093Z,118.00
2023-04-30T03:44:46.006Z,127.00
2023-04-30T03:45:44.593Z,137.00
2023-04-30T03:46:44.498Z,150.00
2023-04-30T03:47:44.507Z,160.00
2023-04-30T03:48:46.980Z,175.00
2023-04-30T03:49:44.432Z,184.00
2023-04-30T03:50:44.489Z,200.00
2023-04-30T03:51:44.416Z,213.00
2023-04-30T03:52:44.415Z,225.00
2023-04-30T03:53:44.405Z,237.00
2023-04-30T03:54:44.412Z,251.00
2023-04-30T03:55:44.412Z,263.00
2023-04-30T03:56:44.390Z,281.00
2023-04-30T03:57:44.364Z,297.00
2023-04-30T03:58:44.338Z,310.00
2023-04-30T03:59:44.361Z,328.00
2023-04-30T04:00:46.064Z,340.00
2023-04-30T04:01:44.333Z,358.00
2023-04-30T04:02:44.339Z,371.00
2023-04-30T04:03:44.311Z,385.00
2023-04-30T04:04:44.334Z,401.00
2023-04-30T04:05:44.293Z,418.00
2023-04-30T04:06:44.383Z,435.00
2023-04-30T04:07:44.248Z,452.00
2023-04-30T04:08:44.241Z,469.00
2023-04-30T04:09:44.246Z,479.00
2023-04-30T04:10:44.227Z,499.00
2023-04-30T04:11:44.246Z,517.00
2023-04-30T04:12:44.232Z,534.00
2023-04-30T04:13:44.198Z,548.00
2023-04-30T04:14:44.193Z,565.00
2023-04-30T04:15:44.222Z,578.00
2023-04-30T04:16:44.230Z,592.00
2023-04-30T04:17:44.218Z,611.00
2023-04-30T04:18:44.144Z,631.00
2023-04-30T04:19:44.130Z,646.00
2023-04-30T04:20:45.578Z,660.00
2023-04-30T04:21:46.504Z,675.00
2023-04-30T04:22:44.127Z,690.00
2023-04-30T04:23:44.127Z,700.00
2023-04-30T04:24:45.642Z,717.00
2023-04-30T04:25:44.100Z,727.00
2023-04-30T04:26:45.067Z,742.00
2023-04-30T04:27:44.048Z,763.00
2023-04-30T04:28:44.039Z,775.00
2023-04-30T04:29:44.054Z,786.00
2023-04-30T04:30:44.005Z,804.00
2023-04-30T04:31:44.069Z,813.00
2023-04-30T04:32:44.066Z,827.00
2023-04-30T04:33:44.007Z,839.00
2023-04-30T04:34:43.976Z,859.00
2023-04-30T04:35:43.983Z,874.00
2023-04-30T04:36:43.972Z,886.00
2023-04-30T04:37:43.948Z,900.00
2023-04-30T04:38:43.937Z,911.00
2023-04-30T04:39:43.916Z,925.00
2023-04-30T04:40:43.943Z,934.00
2023-04-30T04:41:43.925Z,948.00
2023-04-30T04:42:44.628Z,955.00
2023-04-30T04:43:44.689Z,970.00
2023-04-30T04:44:43.881Z,981.00
2023-04-30T04:45:43.876Z,995.00
2023-04-30T04:46:45.150Z,1010.00
2023-04-30T04:47:45.223Z,1018.00
2023-04-30T04:48:43.837Z,1036.00
2023-04-30T04:49:44.869Z,1048.00
2023-04-30T04:50:44.311Z,1059.00
2023-04-30T04:51:44.860Z,1071.00
2023-04-30T04:52:43.797Z,1085.00
2023-04-30T04:53:43.766Z,1097.00
2023-04-30T04:54:43.828Z,1111.00
2023-04-30T04:55:43.787Z,1120.00
2023-04-30T04:56:43.762Z,1134.00
2023-04-30T04:57:43.739Z,1144.00
2023-04-30T04:58:43.729Z,1154.00
2023-04-30T04:59:43.704Z,1167.00
2023-04-30T05:00:44.487Z,1180.00
2023-04-30T05:01:43.754Z,1198.00
2023-04-30T05:02:43.852Z,1205.00
2023-04-30T05:03:43.760Z,1212.00
2023-04-30T05:04:45.381Z,1227.00
2023-04-30T05:05:44.978Z,1240.00
2023-04-30T05:06:43.800Z,1262.00
2023-04-30T05:07:43.630Z,1274.00
2023-04-30T05:08:43.772Z,1294.00
2023-04-30T05:09:43.634Z,1304.00
2023-04-30T05:10:43.616Z,1315.00
2023-04-30T05:11:43.582Z,1337.00
2023-04-30T05:12:43.631Z,1350.00
2023-04-30T05:13:43.619Z,1365.00
2023-04-30T05:14:43.561Z,1367.00
2023-04-30T05:15:43.573Z,1371.00
2023-04-30T05:16:45.554Z,1374.00
2023-04-30T05:17:43.588Z,1393.00
2023-04-30T05:18:43.588Z,1402.00
2023-04-30T05:19:45.031Z,1425.00
2023-04-30T05:20:43.496Z,1453.00
2023-04-30T05:21:43.483Z,1477.00
2023-04-30T05:22:43.798Z,1509.00
2023-04-30T05:23:44.267Z,1538.00
2023-04-30T05:24:43.491Z,1564.00
2023-04-30T05:25:44.001Z,1575.00
2023-04-30T05:26:43.442Z,1597.00
2023-04-30T05:27:43.580Z,1627.00
2023-04-30T05:28:43.479Z,1646.00
2023-04-30T05:29:43.542Z,1654.00
2023-04-30T05:45:22.596Z,1970.00
2023-04-30T05:46:23.608Z,1928.00
2023-04-30T05:47:23.536Z,1960.00
2023-04-30T05:48:23.562Z,1993.00
2023-04-30T05:49:23.527Z,1989.00
2023-04-30T05:50:25.183Z,2030.00
2023-04-30T05:51:23.510Z,2001.00
2023-04-30T05:52:23.513Z,1975.00
2023-04-30T05:53:23.513Z,1994.00
2023-04-30T05:54:23.473Z,2056.00
2023-04-30T05:55:23.494Z,2111.00
2023-04-30T05:56:23.511Z,1932.00
2023-04-30T05:57:23.449Z,1927.00
2023-04-30T05:58:23.457Z,2046.00
2023-04-30T05:59:23.685Z,2326.00
2023-04-30T06:00:23.478Z,2146.00
2023-04-30T06:01:26.323Z,2107.00
2023-04-30T06:02:23.517Z,2558.00
2023-04-30T06:03:23.449Z,1864.00
2023-04-30T06:04:23.370Z,1796.00
2023-04-30T06:05:23.435Z,3751.00
2023-04-30T06:06:23.405Z,7157.00
2023-04-30T06:07:23.345Z,8873.00
2023-04-30T06:08:23.325Z,8664.00
2023-04-30T06:09:23.339Z,7937.00
2023-04-30T06:10:23.314Z,11821.00
2023-04-30T06:11:23.319Z,12982.00
2023-04-30T06:12:23.279Z,11423.00
2023-04-30T06:13:23.287Z,11428.00
2023-04-30T06:14:25.338Z,12656.00
2023-04-30T06:15:24.051Z,12142.00
2023-04-30T06:16:23.284Z,10725.00
2023-04-30T06:17:23.286Z,11961.00
2023-04-30T06:18:23.228Z,13215.00
2023-04-30T06:19:23.283Z,12983.00
2023-04-30T06:20:23.243Z,12230.00
2023-04-30T06:21:23.200Z,12872.00
2023-04-30T06:22:23.178Z,15381.00
2023-04-30T06:23:29.863Z,16119.00
2023-04-30T06:24:23.168Z,17015.00
2023-04-30T06:25:23.184Z,15774.00
2023-04-30T06:26:23.159Z,13892.00
2023-04-30T06:27:23.139Z,15630.00
2023-04-30T06:28:23.125Z,17337.00
2023-04-30T06:29:26.227Z,14351.00
2023-04-30T06:30:23.148Z,17781.00
2023-04-30T06:31:23.133Z,18414.00
2023-04-30T06:32:23.112Z,14303.00
2023-04-30T06:33:23.113Z,15622.00
2023-04-30T06:34:23.066Z,16101.00
2023-04-30T06:35:23.072Z,16285.00
2023-04-30T06:36:23.063Z,17873.00
2023-04-30T06:37:23.060Z,17005.00
2023-04-30T06:38:23.039Z,17309.00
2023-04-30T06:39:23.061Z,17032.00
2023-04-30T06:40:23.012Z,20783.00
2023-04-30T06:41:23.006Z,17007.00
2023-04-30T06:42:22.993Z,16367.00
2023-04-30T06:43:23.000Z,18748.00
2023-04-30T06:44:22.951Z,16210.00
2023-04-30T06:45:22.967Z,19574.00
2023-04-30T06:46:23.072Z,18462.00
2023-04-30T06:47:22.994Z,17285.00
2023-04-30T06:48:22.975Z,15920.00
2023-04-30T06:49:22.978Z,17543.00
2023-04-30T06:50:25.894Z,21502.00
2023-04-30T06:51:22.903Z,21219.00
2023-04-30T06:52:22.878Z,20299.00
2023-04-30T06:53:22.915Z,18660.00
2023-04-30T06:54:24.492Z,18077.00
2023-04-30T06:55:23.426Z,20478.00
2023-04-30T06:56:22.829Z,18461.00
2023-04-30T06:57:22.839Z,20125.00
2023-04-30T06:58:22.812Z,17955.00
2023-04-30T06:59:22.841Z,17640.00
2023-04-30T07:00:22.835Z,21604.00
2023-04-30T07:01:22.828Z,17988.00
2023-04-30T07:02:22.828Z,21013.00
2023-04-30T07:03:22.867Z,23086.00
2023-04-30T07:04:22.743Z,20466.00
2023-04-30T07:05:22.773Z,19248.00
2023-04-30T07:06:22.850Z,25421.00
2023-04-30T07:07:22.734Z,23633.00
2023-04-30T07:08:22.729Z,18136.00
2023-04-30T07:09:22.721Z,23065.00
2023-04-30T07:10:22.876Z,24623.00
2023-04-30T07:11:22.691Z,24178.00
2023-04-30T07:12:22.651Z,20125.00
2023-04-30T07:13:22.671Z,22100.00
2023-04-30T07:14:22.659Z,27393.00
2023-04-30T07:15:22.670Z,23771.00
2023-04-30T07:16:22.707Z,25120.00
2023-04-30T07:17:22.669Z,26095.00
2023-04-30T07:18:22.614Z,24731.00
2023-04-30T07:19:23.433Z,24105.00
2023-04-30T07:20:22.589Z,75412.00
2023-04-30T07:21:22.601Z,75038.00
2023-04-30T07:22:25.714Z,31059.00
2023-04-30T07:23:22.543Z,11152.00
2023-04-30T07:24:22.572Z,75441.00
2023-04-30T07:25:22.548Z,74269.00
2023-04-30T07:26:22.542Z,23358.00
2023-04-30T07:27:23.980Z,23587.00
2023-04-30T07:28:23.434Z,75049.00
2023-04-30T07:29:23.179Z,75500.00
2023-04-30T07:30:24.398Z,75964.00
2023-04-30T07:31:22.535Z,76622.00
2023-04-30T07:32:22.464Z,75502.00
2023-04-30T07:33:22.461Z,74844.00
2023-04-30T07:34:23.246Z,76021.00
2023-04-30T07:35:22.412Z,75805.00
2023-04-30T07:36:22.476Z,76181.00
2023-04-30T07:37:22.421Z,76373.00
2023-04-30T07:38:22.400Z,76360.00
2023-04-30T07:39:22.458Z,75783.00
2023-04-30T07:40:34.992Z,75297.00
2023-04-30T07:41:22.362Z,74968.00
2023-04-30T07:42:22.414Z,76874.00
2023-04-30T07:43:22.365Z,73711.00
2023-04-30T07:44:22.367Z,30513.00
2023-04-30T07:45:23.813Z,15436.00
2023-04-30T07:46:22.394Z,6383.00
2023-04-30T07:47:22.312Z,5198.00
2023-04-30T07:48:22.307Z,4986.00
2023-04-30T07:49:22.314Z,4648.00
2023-04-30T07:50:22.296Z,4836.00
2023-04-30T07:51:22.269Z,4728.00
2023-04-30T07:52:22.263Z,4652.00
2023-04-30T07:53:22.255Z,4610.00
2023-04-30T07:54:22.274Z,4725.00
2023-04-30T07:55:22.229Z,4954.00
2023-04-30T07:56:24.903Z,4821.00
2023-04-30T07:57:22.191Z,6329.00
2023-04-30T07:58:22.205Z,1271.00
2023-04-30T07:59:22.244Z,5554.00
2023-04-30T08:00:22.237Z,2780.00
2023-04-30T08:01:22.152Z,4933.00
2023-04-30T08:02:22.206Z,10579.00
2023-04-30T08:03:22.274Z,78793.00
2023-04-30T08:04:22.211Z,77832.00
2023-04-30T08:05:22.123Z,77587.00
2023-04-30T08:06:22.165Z,78143.00
2023-04-30T08:07:22.089Z,77563.00
2023-04-30T08:08:23.678Z,75885.00
2023-04-30T08:09:22.104Z,74941.00
2023-04-30T08:10:22.130Z,75514.00
2023-04-30T08:11:22.068Z,76918.00
2023-04-30T08:12:22.050Z,76563.00
2023-04-30T08:13:22.108Z,78921.00
2023-04-30T08:14:22.063Z,77209.00
2023-04-30T08:15:22.041Z,77800.00
2023-04-30T08:16:22.056Z,78900.00
2023-04-30T08:17:22.009Z,77204.00
2023-04-30T08:18:22.024Z,74550.00
2023-04-30T08:19:21.964Z,32648.00
2023-04-30T08:20:22.003Z,24165.00
2023-04-30T08:21:24.258Z,19257.00
2023-04-30T08:22:21.948Z,13959.00
2023-04-30T08:23:21.936Z,7469.00
2023-04-30T08:24:21.980Z,5726.00
2023-04-30T08:25:21.942Z,5269.00
2023-04-30T08:26:21.918Z,5002.00
2023-04-30T08:27:21.912Z,4907.00
2023-04-30T08:28:21.893Z,4847.00
2023-04-30T08:29:25.578Z,4783.00
2023-04-30T08:30:21.894Z,4784.00
2023-04-30T08:31:23.066Z,4730.00
2023-04-30T08:32:22.018Z,4689.00
2023-04-30T08:33:21.849Z,4654.00
2023-04-30T08:34:21.858Z,4642.00
2023-04-30T08:35:21.823Z,4555.00
2023-04-30T08:36:21.807Z,4537.00
2023-04-30T08:37:23.919Z,4487.00
2023-04-30T08:38:21.817Z,4475.00
2023-04-30T08:39:21.823Z,4458.00
2023-04-30T08:40:23.559Z,4419.00
2023-04-30T08:41:21.759Z,4348.00
2023-04-30T08:42:21.753Z,4409.00
2023-04-30T08:43:21.726Z,4413.00
2023-04-30T08:44:21.727Z,4339.00
2023-04-30T08:45:21.734Z,4317.00
2023-04-30T08:46:23.581Z,4316.00
2023-04-30T08:47:21.793Z,4279.00
2023-04-30T08:48:21.731Z,4320.00
2023-04-30T08:49:23.391Z,4281.00
2023-04-30T08:50:22.516Z,4298.00
2023-04-30T08:51:21.649Z,4317.00
2023-04-30T08:52:21.669Z,4285.00
2023-04-30T08:53:21.675Z,4292.00
2023-04-30T08:54:22.397Z,4240.00
2023-04-30T08:55:21.780Z,4243.00
2023-04-30T08:56:23.096Z,4211.00
2023-04-30T08:57:21.585Z,4179.00
2023-04-30T08:58:21.600Z,4213.00
2023-04-30T08:59:21.589Z,4190.00
2023-04-30T09:00:21.583Z,4166.00
2023-04-30T09:01:21.598Z,4132.00
2023-04-30T09:02:22.471Z,4170.00
2023-04-30T09:03:21.634Z,4119.00
2023-04-30T09:04:21.538Z,4109.00
2023-04-30T09:05:22.214Z,4059.00
2023-04-30T09:06:21.569Z,4108.00
2023-04-30T09:07:28.304Z,4052.00
2023-04-30T09:08:21.485Z,4070.00
2023-04-30T09:09:21.474Z,4059.00
2023-04-30T09:10:22.910Z,4030.00
2023-04-30T09:11:22.065Z,4016.00
2023-04-30T09:12:21.430Z,3998.00
2023-04-30T09:13:21.425Z,3990.00
2023-04-30T09:14:21.416Z,3990.00
2023-04-30T09:15:22.157Z,3981.00
2023-04-30T09:16:21.453Z,3937.00
2023-04-30T09:17:22.811Z,3905.00
2023-04-30T09:18:25.072Z,3890.00
2023-04-30T09:19:21.389Z,3861.00
2023-04-30T09:20:22.215Z,3812.00
2023-04-30T09:21:21.364Z,3810.00
2023-04-30T09:22:21.404Z,3784.00
2023-04-30T09:23:21.953Z,3736.00
2023-04-30T09:24:22.616Z,3731.00
2023-04-30T09:25:21.292Z,3709.00
2023-04-30T09:26:21.351Z,3674.00
2023-04-30T09:27:21.286Z,3649.00
2023-04-30T09:28:21.284Z,3603.00
2023-04-30T09:29:21.265Z,3589.00
2023-04-30T09:30:21.287Z,3539.00
2023-04-30T09:31:21.298Z,3537.00
2023-04-30T09:32:21.316Z,3519.00
2023-04-30T09:33:21.265Z,3505.00
2023-04-30T09:34:21.256Z,3514.00
2023-04-30T09:35:21.186Z,3497.00
2023-04-30T09:36:21.220Z,3503.00
2023-04-30T09:37:21.188Z,3474.00
2023-04-30T09:38:21.174Z,3467.00
2023-04-30T09:39:21.150Z,3471.00
2023-04-30T09:40:21.176Z,3464.00
2023-04-30T09:41:21.161Z,3451.00
2023-04-30T09:42:21.153Z,3449.00
2023-04-30T09:43:21.109Z,3441.00
2023-04-30T09:44:21.103Z,3442.00
2023-04-30T09:45:21.123Z,3431.00
2023-04-30T09:46:21.169Z,3434.00
2023-04-30T09:47:21.131Z,3439.00
2023-04-30T09:48:21.147Z,3431.00
2023-04-30T09:49:21.051Z,3413.00
2023-04-30T09:50:21.079Z,3418.00
2023-04-30T09:51:22.764Z,3401.00
2023-04-30T09:52:21.046Z,3394.00
2023-04-30T09:53:22.851Z,3389.00
2023-04-30T09:54:21.007Z,3396.00
2023-04-30T09:55:24.069Z,3386.00
2023-04-30T09:56:21.017Z,3376.00
2023-04-30T09:57:20.974Z,3393.00
2023-04-30T09:58:22.633Z,3382.00
2023-04-30T09:59:24.201Z,3380.00
2023-04-30T10:00:20.948Z,3363.00
2023-04-30T10:01:21.074Z,3373.00
2023-04-30T10:02:20.927Z,3341.00
2023-04-30T10:03:20.912Z,3330.00
2023-04-30T10:04:22.371Z,3305.00
2023-04-30T10:05:20.865Z,3310.00
2023-04-30T10:06:21.027Z,3310.00
2023-04-30T10:07:23.166Z,3318.00
2023-04-30T10:08:20.875Z,3335.00
2023-04-30T10:09:20.834Z,3327.00
2023-04-30T10:10:20.845Z,3325.00
2023-04-30T10:11:21.758Z,3289.00
2023-04-30T10:12:20.816Z,3277.00
2023-04-30T10:13:20.809Z,3294.00
2023-04-30T10:14:20.949Z,3263.00
2023-04-30T10:15:20.782Z,3282.00
2023-04-30T10:16:22.453Z,3269.00
2023-04-30T10:17:21.538Z,3280.00
2023-04-30T10:18:21.408Z,3310.00
2023-04-30T10:19:21.382Z,3315.00
2023-04-30T10:20:20.778Z,3337.00
2023-04-30T10:21:20.745Z,3359.00
2023-04-30T10:22:21.423Z,3363.00
2023-04-30T10:23:20.706Z,3361.00
2023-04-30T10:24:23.855Z,3393.00
2023-04-30T10:25:22.283Z,3422.00
2023-04-30T10:26:20.690Z,3456.00
2023-04-30T10:27:20.684Z,3505.00
2023-04-30T10:28:20.697Z,3539.00
2023-04-30T10:29:20.644Z,3630.00
2023-04-30T10:30:20.641Z,3654.00
2023-04-30T10:31:20.623Z,3733.00
2023-04-30T10:32:24.024Z,3815.00
2023-04-30T10:33:20.879Z,3870.00
2023-04-30T10:34:20.589Z,3926.00
2023-04-30T10:35:20.610Z,4015.00
2023-04-30T10:36:20.608Z,4128.00
2023-04-30T10:37:20.558Z,4230.00
2023-04-30T10:38:20.587Z,4380.00
2023-04-30T10:39:20.555Z,4518.00
2023-04-30T10:40:20.561Z,4643.00
2023-04-30T10:41:20.523Z,4950.00
2023-04-30T10:42:20.524Z,5064.00
2023-04-30T10:43:20.506Z,5314.00
2023-04-30T10:44:20.512Z,5634.00
2023-04-30T10:45:20.494Z,5361.00
2023-04-30T10:46:23.456Z,5734.00
2023-04-30T10:47:20.464Z,6831.00
2023-04-30T10:48:21.224Z,9132.00
2023-04-30T10:49:20.457Z,10879.00
2023-04-30T10:50:20.448Z,6744.00
2023-04-30T10:51:20.408Z,77862.00
2023-04-30T10:52:20.492Z,78173.00
2023-04-30T10:53:20.442Z,77721.00
2023-04-30T10:54:20.408Z,76073.00
2023-04-30T10:55:20.382Z,75690.00
2023-04-30T10:56:20.399Z,83682.00
2023-04-30T10:57:20.392Z,68415.00
2023-04-30T10:58:20.392Z,12420.00
2023-04-30T10:59:20.377Z,4388.00
2023-04-30T11:00:20.393Z,3546.00
2023-04-30T11:01:20.367Z,3052.00
2023-04-30T11:02:20.367Z,2788.00
2023-04-30T11:03:22.472Z,2765.00
2023-04-30T11:04:20.366Z,2755.00
2023-04-30T11:05:20.320Z,2736.00
2023-04-30T11:06:20.423Z,2733.00
2023-04-30T11:07:20.288Z,2741.00
2023-04-30T11:08:20.262Z,2722.00
2023-04-30T11:09:20.269Z,2718.00
2023-04-30T11:10:20.233Z,2712.00
2023-04-30T11:11:20.211Z,2712.00
2023-04-30T11:12:20.261Z,2711.00
2023-04-30T11:13:20.192Z,2693.00
2023-04-30T11:14:20.242Z,2693.00
2023-04-30T11:15:20.173Z,2677.00
2023-04-30T11:16:20.357Z,2679.00
2023-04-30T11:17:20.218Z,2691.00
2023-04-30T11:18:20.140Z,2684.00
2023-04-30T11:19:20.155Z,2666.00
2023-04-30T11:20:20.139Z,2675.00
2023-04-30T11:21:20.099Z,2676.00
2023-04-30T11:22:20.137Z,2661.00
2023-04-30T11:23:28.570Z,2670.00
2023-04-30T11:24:20.103Z,2697.00
2023-04-30T11:25:20.078Z,2679.00
2023-04-30T11:26:20.075Z,2693.00
2023-04-30T11:27:20.042Z,2691.00
2023-04-30T11:28:20.053Z,2721.00
2023-04-30T11:29:20.997Z,2729.00
2023-04-30T11:30:20.067Z,2739.00
2023-04-30T11:31:20.054Z,2721.00
2023-04-30T11:32:20.062Z,2710.00
2023-04-30T11:33:19.996Z,2720.00
2023-04-30T11:34:19.963Z,2717.00
2023-04-30T11:35:20.028Z,2719.00
2023-04-30T11:36:19.956Z,2736.00
2023-04-30T11:37:19.970Z,2742.00
2023-04-30T11:38:19.928Z,2718.00
2023-04-30T11:39:19.944Z,2701.00
2023-04-30T11:40:19.944Z,2713.00
2023-04-30T11:41:19.921Z,2709.00
2023-04-30T11:42:19.913Z,2710.00
2023-04-30T11:43:19.904Z,2708.00
2023-04-30T11:44:19.877Z,2710.00
2023-04-30T11:45:19.877Z,2731.00
2023-04-30T11:46:19.929Z,2736.00
2023-04-30T11:47:19.889Z,2769.00
2023-04-30T11:48:19.831Z,2776.00
2023-04-30T11:49:19.826Z,2782.00
2023-04-30T11:50:20.497Z,2771.00
2023-04-30T11:51:19.819Z,2780.00
2023-04-30T11:52:19.820Z,2782.00
2023-04-30T11:53:19.840Z,2803.00
2023-04-30T11:54:19.794Z,2814.00
2023-04-30T11:55:19.805Z,2810.00
2023-04-30T11:56:19.755Z,2806.00
2023-04-30T11:57:19.755Z,2818.00
2023-04-30T11:58:19.723Z,2814.00
2023-04-30T11:59:19.716Z,2838.00
2023-04-30T12:00:19.787Z,2846.00
2023-04-30T12:01:19.724Z,2829.00
2023-04-30T12:02:19.701Z,2808.00
2023-04-30T12:03:19.782Z,2836.00
2023-04-30T12:04:19.762Z,2869.00
2023-04-30T12:05:19.661Z,2885.00
2023-04-30T12:06:19.710Z,2886.00
2023-04-30T12:07:20.792Z,2905.00
2023-04-30T12:08:19.649Z,2880.00
2023-04-30T12:09:19.632Z,2935.00
2023-04-30T12:10:19.606Z,2949.00
2023-04-30T12:11:22.975Z,2968.00
2023-04-30T12:12:19.599Z,2934.00
2023-04-30T12:13:19.603Z,2934.00
2023-04-30T12:14:21.468Z,2926.00
2023-04-30T12:15:19.564Z,2960.00
2023-04-30T12:16:19.596Z,2976.00
2023-04-30T12:17:19.604Z,2995.00
2023-04-30T12:18:19.524Z,2991.00
2023-04-30T12:19:19.528Z,3006.00
2023-04-30T12:20:19.537Z,3013.00
2023-04-30T12:21:19.532Z,3026.00
2023-04-30T12:22:20.945Z,3053.00
2023-04-30T12:23:19.521Z,3056.00
2023-04-30T12:24:19.454Z,3082.00
2023-04-30T12:25:19.478Z,3064.00
2023-04-30T12:26:19.453Z,3094.00
2023-04-30T12:27:19.482Z,3098.00
2023-04-30T12:28:19.444Z,3070.00
2023-04-30T12:29:19.408Z,3094.00
2023-04-30T12:30:19.408Z,3060.00
2023-04-30T12:31:19.432Z,3092.00
2023-04-30T12:32:19.705Z,3097.00
2023-04-30T12:33:19.414Z,3099.00
2023-04-30T12:34:20.060Z,3104.00
2023-04-30T12:35:19.352Z,3077.00
2023-04-30T12:36:20.066Z,3139.00
2023-04-30T12:37:19.363Z,3109.00
2023-04-30T12:38:19.340Z,3136.00